createdAt,value
2019-04-04T00:00:59.181Z,42.80
2019-04-04T00:03:37.485Z,42.38
2019-04-04T00:06:15.560Z,41.48
2019-04-04T00:08:54.132Z,45.67
2019-04-04T00:11:31.784Z,43.45
2019-04-04T00:14:12.727Z,43.75
2019-04-04T00:16:49.377Z,43.15
2019-04-04T00:19:29.931Z,42.00
2019-04-04T00:22:08.078Z,42.67
2019-04-04T00:24:46.999Z,53.63
2019-04-04T00:27:25.297Z,53.38
2019-04-04T00:30:04.444Z,52.23
2019-04-04T00:32:44.326Z,47.08
2019-04-04T00:35:22.431Z,39.83
2019-04-04T00:38:00.284Z,41.13
2019-04-04T00:40:40.109Z,40.17
2019-04-04T00:43:20.746Z,36.90
2019-04-04T00:46:00.490Z,38.55
2019-04-04T00:48:38.842Z,37.58
2019-04-04T00:51:17.640Z,39.38
2019-04-04T00:53:55.593Z,39.27
2019-04-04T00:56:33.805Z,41.73
2019-04-04T00:59:11.949Z,40.92
2019-04-04T01:01:51.555Z,40.30
2019-04-04T01:04:31.130Z,37.00
2019-04-04T01:07:09.820Z,34.08
2019-04-04T01:09:48.810Z,37.05
2019-04-04T01:12:28.017Z,36.75
2019-04-04T01:15:05.955Z,34.45
2019-04-04T01:17:44.729Z,34.65
2019-04-04T01:20:23.762Z,33.60
2019-04-04T01:23:02.921Z,33.70
2019-04-04T01:25:41.358Z,31.80
2019-04-04T01:28:20.474Z,45.92
2019-04-04T01:30:58.628Z,43.73
2019-04-04T01:33:37.957Z,30.27
2019-04-04T01:36:17.767Z,35.95
2019-04-04T01:38:56.020Z,33.02
2019-04-04T01:41:36.163Z,31.95
2019-04-04T01:44:14.216Z,31.55
2019-04-04T01:46:52.923Z,32.08
2019-04-04T01:49:31.223Z,30.52
2019-04-04T01:52:10.358Z,18.12
2019-04-04T01:54:48.997Z,9.68
2019-04-04T01:57:27.320Z,8.48
2019-04-04T02:00:06.671Z,7.92
2019-04-04T02:02:45.451Z,7.55
2019-04-04T02:05:26.693Z,7.08
2019-04-04T02:08:04.197Z,8.18
2019-04-04T02:10:42.226Z,8.13
2019-04-04T02:13:20.612Z,8.55
2019-04-04T02:15:59.751Z,7.95
2019-04-04T02:18:37.796Z,7.72
2019-04-04T02:21:17.310Z,7.87
2019-04-04T02:23:55.366Z,8.30
2019-04-04T02:26:36.073Z,7.65
2019-04-04T02:29:13.862Z,7.67
2019-04-04T02:31:55.557Z,7.92
2019-04-04T02:34:37.507Z,7.40
2019-04-04T02:37:13.826Z,7.42
2019-04-04T02:39:53.512Z,7.62
2019-04-04T02:42:31.588Z,8.18
2019-04-04T02:45:09.560Z,6.87
2019-04-04T02:47:51.379Z,7.12
2019-04-04T02:50:29.090Z,7.10
2019-04-04T02:53:07.416Z,7.42
2019-04-04T02:55:45.156Z,7.30
2019-04-04T02:58:24.662Z,7.22
2019-04-04T03:01:03.196Z,6.95
2019-04-04T03:03:42.283Z,7.55
2019-04-04T03:06:24.047Z,7.53
2019-04-04T03:08:59.924Z,7.65
2019-04-04T03:11:39.029Z,7.42
2019-04-04T03:14:17.554Z,7.33
2019-04-04T03:16:56.912Z,6.72
2019-04-04T03:19:37.468Z,7.42
2019-04-04T03:22:15.635Z,6.90
2019-04-04T03:24:54.214Z,6.72
2019-04-04T03:27:32.325Z,6.30
2019-04-04T03:30:14.568Z,7.00
2019-04-04T03:35:29.542Z,7.12
2019-04-04T03:38:07.619Z,7.22
2019-04-04T03:40:46.518Z,7.12
2019-04-04T03:43:26.023Z,7.05
2019-04-04T03:46:04.552Z,8.08
2019-04-04T03:48:43.085Z,7.35
2019-04-04T03:51:22.285Z,7.40
2019-04-04T03:54:05.088Z,7.62
2019-04-04T03:56:42.621Z,7.03
2019-04-04T03:59:20.387Z,7.20
2019-04-04T04:01:59.020Z,7.97
2019-04-04T04:04:37.361Z,6.95
2019-04-04T04:07:15.631Z,6.95
2019-04-04T04:09:53.387Z,7.20
2019-04-04T04:12:32.604Z,6.50
2019-04-04T04:15:11.692Z,7.10
2019-04-04T04:17:49.833Z,6.45
2019-04-04T04:20:28.133Z,6.60
2019-04-04T04:23:06.887Z,6.50
2019-04-04T04:25:47.471Z,6.10
2019-04-04T04:31:04.154Z,5.72
2019-04-04T04:33:42.938Z,6.60
2019-04-04T04:36:21.049Z,6.53
2019-04-04T04:39:00.272Z,6.70
2019-04-04T04:41:40.702Z,6.60
2019-04-04T04:44:20.658Z,6.00
2019-04-04T04:46:59.822Z,5.65
2019-04-04T04:49:38.730Z,7.00
2019-04-04T04:52:16.769Z,5.92
2019-04-04T04:54:55.807Z,5.83
2019-04-04T04:57:34.416Z,5.03
2019-04-04T05:00:13.965Z,5.60
2019-04-04T05:02:53.786Z,5.85
2019-04-04T05:05:33.126Z,5.97
2019-04-04T05:08:11.061Z,6.10
2019-04-04T05:10:49.029Z,5.95
2019-04-04T05:13:28.816Z,5.95
2019-04-04T05:16:08.871Z,5.78
2019-04-04T05:18:48.284Z,5.10
2019-04-04T05:21:28.720Z,4.62
2019-04-04T05:24:06.410Z,5.30
2019-04-04T05:26:45.776Z,5.22
2019-04-04T05:29:23.754Z,5.40
2019-04-04T05:32:01.995Z,5.17
2019-04-04T05:34:40.093Z,4.50
2019-04-04T05:37:19.030Z,5.17
2019-04-04T05:39:57.190Z,5.05
2019-04-04T05:42:35.364Z,5.40
2019-04-04T05:45:14.434Z,5.33
2019-04-04T05:47:56.288Z,5.08
2019-04-04T05:50:33.599Z,5.12
2019-04-04T05:53:12.074Z,5.17
2019-04-04T05:55:50.161Z,4.83
2019-04-04T05:58:29.057Z,4.80
2019-04-04T06:01:08.368Z,4.60
2019-04-04T06:03:47.894Z,5.15
2019-04-04T06:06:26.417Z,5.28
2019-04-04T06:09:06.715Z,4.97
2019-04-04T06:11:44.936Z,4.95
2019-04-04T06:14:23.605Z,5.05
2019-04-04T06:17:01.948Z,3.98
2019-04-04T06:19:40.604Z,3.80
2019-04-04T06:22:21.189Z,3.85
2019-04-04T06:25:00.027Z,4.35
2019-04-04T06:27:40.049Z,4.45
2019-04-04T06:30:20.165Z,5.85
2019-04-04T06:32:58.789Z,4.10
2019-04-04T06:35:39.548Z,4.83
2019-04-04T06:38:16.395Z,4.80
2019-04-04T06:40:55.471Z,5.60
2019-04-04T06:43:33.846Z,4.40
2019-04-04T06:46:12.621Z,4.03
2019-04-04T06:48:50.407Z,3.72
2019-04-04T06:51:30.378Z,4.03
2019-04-04T06:54:10.105Z,4.15
2019-04-04T06:56:48.640Z,4.37
2019-04-04T06:59:26.739Z,5.05
2019-04-04T07:02:06.074Z,4.30
2019-04-04T07:04:44.227Z,4.35
2019-04-04T07:07:22.973Z,4.15
2019-04-04T07:10:01.058Z,4.65
2019-04-04T07:12:40.808Z,4.20
2019-04-04T07:15:19.321Z,4.20
2019-04-04T07:17:57.531Z,5.37
2019-04-04T07:20:35.240Z,4.28
2019-04-04T07:23:14.568Z,5.15
2019-04-04T07:25:55.916Z,6.22
2019-04-04T07:28:33.989Z,6.30
2019-04-04T07:31:15.789Z,4.45
2019-04-04T07:33:53.078Z,4.37
2019-04-04T07:36:31.306Z,3.77
2019-04-04T07:39:12.333Z,3.40
2019-04-04T07:41:49.498Z,4.70
2019-04-04T07:44:28.537Z,4.22
2019-04-04T07:47:07.159Z,4.75
2019-04-04T07:49:45.519Z,4.50
2019-04-04T07:52:24.291Z,4.42
2019-04-04T07:55:03.845Z,4.87
2019-04-04T07:57:43.178Z,4.20
2019-04-04T08:00:22.097Z,4.17
2019-04-04T08:03:00.305Z,3.92
2019-04-04T08:05:38.928Z,3.90
2019-04-04T08:08:17.070Z,3.83
2019-04-04T08:10:56.251Z,3.80
2019-04-04T08:13:34.519Z,3.40
2019-04-04T08:16:13.519Z,3.83
2019-04-04T08:18:51.625Z,4.20
2019-04-04T08:21:29.789Z,3.37
2019-04-04T08:24:08.332Z,3.70
2019-04-04T08:26:47.509Z,3.45
2019-04-04T08:29:26.715Z,3.35
2019-04-04T08:32:06.096Z,3.27
2019-04-04T08:34:43.901Z,3.70
2019-04-04T08:37:22.809Z,3.05
2019-04-04T08:40:00.873Z,3.22
2019-04-04T08:42:39.959Z,3.75
2019-04-04T08:45:18.352Z,3.60
2019-04-04T08:47:57.373Z,4.00
2019-04-04T08:50:35.660Z,3.05
2019-04-04T08:53:14.449Z,4.08
2019-04-04T08:55:52.715Z,4.75
2019-04-04T08:58:33.059Z,3.90
2019-04-04T09:01:12.455Z,2.10
2019-04-04T09:03:50.908Z,2.98
2019-04-04T09:06:29.062Z,2.67
2019-04-04T09:09:09.486Z,2.92
2019-04-04T09:11:47.694Z,2.55
2019-04-04T09:14:26.192Z,2.67
2019-04-04T09:17:04.889Z,3.35
2019-04-04T09:19:44.246Z,3.50
2019-04-04T09:22:24.069Z,3.33
2019-04-04T09:25:01.919Z,3.40
2019-04-04T09:27:40.035Z,3.10
2019-04-04T09:30:21.535Z,3.35
2019-04-04T09:33:00.957Z,3.62
2019-04-04T09:35:39.610Z,3.12
2019-04-04T09:38:18.017Z,3.22
2019-04-04T09:40:56.527Z,2.90
2019-04-04T09:43:34.348Z,2.77
2019-04-04T09:46:12.089Z,3.27
2019-04-04T09:48:50.180Z,3.37
2019-04-04T09:51:28.830Z,3.33
2019-04-04T09:54:09.295Z,3.37
2019-04-04T09:56:47.359Z,3.95
2019-04-04T09:59:25.489Z,3.70
2019-04-04T10:02:04.667Z,3.50
2019-04-04T10:04:43.401Z,3.95
2019-04-04T10:07:22.114Z,3.75
2019-04-04T10:10:01.031Z,4.12
2019-04-04T10:12:40.614Z,3.70
2019-04-04T10:15:19.990Z,4.42
2019-04-04T10:17:59.100Z,3.80
2019-04-04T10:20:37.439Z,3.67
2019-04-04T10:23:16.880Z,4.33
2019-04-04T10:25:54.942Z,4.47
2019-04-04T10:28:33.377Z,4.75
2019-04-04T10:31:11.388Z,4.33
2019-04-04T10:33:50.313Z,4.45
2019-04-04T10:36:30.236Z,4.33
2019-04-04T10:39:10.876Z,4.75
2019-04-04T10:41:49.316Z,5.20
2019-04-04T10:44:27.948Z,5.37
2019-04-04T10:47:06.095Z,4.80
2019-04-04T10:49:44.678Z,4.85
2019-04-04T10:52:22.578Z,5.12
2019-04-04T10:55:01.889Z,4.72
2019-04-04T10:57:40.194Z,4.83
2019-04-04T11:00:19.147Z,5.85
2019-04-04T11:02:57.533Z,5.10
2019-04-04T11:05:36.556Z,5.08
2019-04-04T11:08:16.177Z,4.97
2019-04-04T11:10:54.305Z,5.40
2019-04-04T11:13:33.667Z,6.60
2019-04-04T11:16:12.495Z,6.00
2019-04-04T11:18:52.625Z,5.90
2019-04-04T11:21:30.569Z,6.62
2019-04-04T11:24:09.726Z,6.78
2019-04-04T11:26:48.966Z,7.35
2019-04-04T11:29:28.076Z,7.10
2019-04-04T11:32:06.754Z,7.08
2019-04-04T11:34:52.984Z,7.37
2019-04-04T11:37:25.382Z,6.97
2019-04-04T11:40:04.387Z,7.33
2019-04-04T11:42:42.827Z,6.80
2019-04-04T11:45:21.254Z,6.40
2019-04-04T11:48:00.028Z,7.08
2019-04-04T11:50:39.863Z,6.25
2019-04-04T11:53:18.855Z,6.60
2019-04-04T11:55:57.817Z,7.20
2019-04-04T11:58:37.642Z,7.35
2019-04-04T12:01:16.044Z,6.62
2019-04-04T12:03:54.047Z,6.67
2019-04-04T12:06:33.256Z,6.90
2019-04-04T12:09:12.778Z,6.58
2019-04-04T12:11:51.779Z,6.92
2019-04-04T12:14:30.099Z,7.22
2019-04-04T12:17:08.485Z,7.40
2019-04-04T12:19:47.416Z,7.08
2019-04-04T12:22:24.968Z,7.08
2019-04-04T12:25:03.813Z,7.42
2019-04-04T12:27:42.405Z,7.58
2019-04-04T12:30:21.576Z,7.30
2019-04-04T12:33:00.242Z,7.60
2019-04-04T12:35:38.939Z,7.30
2019-04-04T12:38:17.982Z,7.00
2019-04-04T12:40:56.985Z,7.37
2019-04-04T12:43:36.363Z,7.40
2019-04-04T12:46:14.309Z,7.30
2019-04-04T12:48:52.597Z,7.97
2019-04-04T12:51:32.097Z,7.70
2019-04-04T12:54:10.174Z,6.45
2019-04-04T12:56:48.814Z,6.87
2019-04-04T12:59:26.910Z,7.37
2019-04-04T13:02:05.643Z,7.20
2019-04-04T13:04:43.608Z,7.55
2019-04-04T13:07:21.937Z,6.85
2019-04-04T13:10:10.914Z,6.33
2019-04-04T13:12:42.049Z,7.20
2019-04-04T13:15:21.348Z,7.10
2019-04-04T13:17:59.425Z,6.95
2019-04-04T13:20:37.405Z,6.75
2019-04-04T13:23:16.844Z,7.58
2019-04-04T13:25:54.942Z,7.10
2019-04-04T13:28:33.422Z,7.00
2019-04-04T13:31:11.605Z,6.85
2019-04-04T13:33:51.089Z,6.25
2019-04-04T13:36:29.201Z,7.05
2019-04-04T13:39:09.359Z,6.97
2019-04-04T13:41:48.048Z,6.80
2019-04-04T13:44:27.322Z,7.15
2019-04-04T13:47:06.447Z,7.80
2019-04-04T13:49:45.049Z,7.10
2019-04-04T13:52:26.084Z,6.75
2019-04-04T13:55:05.072Z,7.22
2019-04-04T13:57:47.611Z,6.87
2019-04-04T14:00:26.102Z,7.45
2019-04-04T14:03:04.302Z,7.35
2019-04-04T14:05:43.004Z,6.95
2019-04-04T14:08:21.203Z,6.90
2019-04-04T14:10:59.496Z,7.17
2019-04-04T14:13:38.101Z,7.03
2019-04-04T14:16:16.995Z,6.75
2019-04-04T14:18:56.088Z,6.40
2019-04-04T14:21:33.970Z,6.58
2019-04-04T14:24:13.794Z,6.22
2019-04-04T14:26:52.448Z,6.80
2019-04-04T14:29:30.494Z,7.60
2019-04-04T14:32:09.152Z,7.15
2019-04-04T14:34:46.907Z,7.17
2019-04-04T14:37:24.779Z,7.97
2019-04-04T14:40:02.941Z,7.80
2019-04-04T14:42:42.858Z,7.83
2019-04-04T14:45:21.077Z,8.38
2019-04-04T14:48:00.949Z,8.23
2019-04-04T14:50:41.156Z,6.97
2019-04-04T14:53:19.890Z,7.28
2019-04-04T14:55:58.310Z,7.78
2019-04-04T14:58:38.190Z,6.87
2019-04-04T15:01:16.151Z,7.20
2019-04-04T15:03:54.763Z,7.10
2019-04-04T15:06:32.738Z,7.35
2019-04-04T15:09:13.687Z,6.83
2019-04-04T15:11:51.566Z,6.42
2019-04-04T15:14:30.003Z,6.50
2019-04-04T15:17:08.618Z,7.30
2019-04-04T15:19:47.406Z,7.75
2019-04-04T15:22:26.348Z,7.62
2019-04-04T15:25:04.974Z,7.70
2019-04-04T15:27:43.249Z,8.15
2019-04-04T15:30:21.891Z,6.25
2019-04-04T15:33:02.615Z,7.00
2019-04-04T15:35:40.245Z,7.42
2019-04-04T15:38:18.525Z,7.12
2019-04-04T15:40:57.547Z,7.08
2019-04-04T15:43:35.801Z,7.72
2019-04-04T15:46:13.803Z,7.08
2019-04-04T15:48:52.395Z,6.35
2019-04-04T15:51:31.216Z,6.70
2019-04-04T15:54:09.796Z,6.35
2019-04-04T15:56:48.428Z,6.20
2019-04-04T15:59:27.086Z,6.15
2019-04-04T16:02:07.312Z,6.30
2019-04-04T16:04:45.433Z,7.50
2019-04-04T16:07:23.899Z,6.80
2019-04-04T16:10:02.003Z,6.47
2019-04-04T16:12:41.160Z,6.90
2019-04-04T16:15:19.505Z,6.62
2019-04-04T16:17:57.851Z,6.45
2019-04-04T16:20:36.640Z,6.60
2019-04-04T16:23:15.365Z,6.53
2019-04-04T16:25:54.236Z,7.35
2019-04-04T16:28:33.212Z,7.22
2019-04-04T16:31:11.628Z,7.25
2019-04-04T16:33:50.854Z,7.65
2019-04-04T16:36:28.911Z,6.92
2019-04-04T16:39:08.899Z,6.78
2019-04-04T16:41:46.689Z,7.05
2019-04-04T16:44:26.457Z,6.67
2019-04-04T16:47:04.362Z,6.70
2019-04-04T16:49:42.838Z,6.67
2019-04-04T16:52:21.212Z,6.30
2019-04-04T16:54:59.392Z,6.22
2019-04-04T16:57:38.926Z,5.97
2019-04-04T17:00:20.858Z,5.87
2019-04-04T17:02:59.628Z,6.15
2019-04-04T17:05:38.818Z,6.35
2019-04-04T17:08:16.957Z,5.78
2019-04-04T17:10:55.571Z,6.80
2019-04-04T17:13:33.893Z,6.35
2019-04-04T17:16:12.278Z,6.70
2019-04-04T17:18:50.180Z,6.37
2019-04-04T17:21:28.559Z,6.83
2019-04-04T17:24:07.703Z,5.85
2019-04-04T17:26:47.016Z,6.10
2019-04-04T17:29:25.893Z,6.03
2019-04-04T17:32:04.287Z,6.45
2019-04-04T17:34:43.303Z,6.47
2019-04-04T17:37:22.559Z,6.05
2019-04-04T17:40:00.529Z,6.03
2019-04-04T17:42:39.340Z,6.15
2019-04-04T17:45:17.711Z,6.70
2019-04-04T17:47:56.871Z,6.40
2019-04-04T17:50:35.650Z,6.75
2019-04-04T17:53:14.985Z,6.70
2019-04-04T17:55:56.103Z,6.83
2019-04-04T17:58:35.705Z,6.87
2019-04-04T18:01:15.401Z,8.03
2019-04-04T18:03:53.663Z,7.87
2019-04-04T18:06:31.587Z,8.50
2019-04-04T18:09:12.473Z,9.10
2019-04-04T18:11:51.308Z,14.40
2019-04-04T18:14:29.472Z,16.90
2019-04-04T18:17:07.638Z,13.20
2019-04-04T18:19:47.463Z,12.93
2019-04-04T18:22:25.626Z,11.08
2019-04-04T18:25:03.836Z,11.10
2019-04-04T18:27:42.866Z,9.60
2019-04-04T18:30:22.445Z,7.20
2019-04-04T18:33:01.474Z,7.83
2019-04-04T18:35:39.702Z,7.47
2019-04-04T18:38:18.384Z,6.62
2019-04-04T18:40:57.213Z,6.83
2019-04-04T18:43:35.489Z,7.22
2019-04-04T18:46:13.817Z,7.60
2019-04-04T18:48:52.001Z,7.87
2019-04-04T18:51:30.495Z,6.80
2019-04-04T18:54:27.264Z,6.92
2019-04-04T18:57:05.229Z,6.42
2019-04-04T18:59:44.509Z,7.25
2019-04-04T19:02:25.546Z,7.08
2019-04-04T19:05:06.284Z,6.80
2019-04-04T19:07:44.550Z,6.75
2019-04-04T19:10:22.928Z,6.50
2019-04-04T19:13:05.642Z,6.10
2019-04-04T19:15:41.833Z,6.47
2019-04-04T19:18:19.745Z,6.75
2019-04-04T19:20:58.083Z,7.00
2019-04-04T19:23:48.532Z,7.50
2019-04-04T19:26:16.836Z,8.10
2019-04-04T19:28:54.905Z,8.03
2019-04-04T19:31:33.416Z,7.85
2019-04-04T19:34:12.178Z,8.68
2019-04-04T19:36:51.277Z,9.73
2019-04-04T19:39:29.657Z,8.75
2019-04-04T19:42:07.833Z,8.70
2019-04-04T19:44:53.240Z,8.10
2019-04-04T19:47:26.362Z,7.80
2019-04-04T19:50:04.618Z,6.62
2019-04-04T19:52:43.147Z,7.30
2019-04-04T19:55:22.249Z,7.22
2019-04-04T19:58:00.342Z,6.78
2019-04-04T20:00:38.477Z,6.83
2019-04-04T20:03:17.195Z,7.30
2019-04-04T20:05:55.965Z,7.83
2019-04-04T20:08:34.120Z,7.60
2019-04-04T20:11:12.550Z,9.25
2019-04-04T20:13:50.524Z,7.85
2019-04-04T20:16:29.497Z,8.10
2019-04-04T20:19:07.549Z,7.92
2019-04-04T20:21:46.663Z,7.30
2019-04-04T20:24:24.659Z,8.38
2019-04-04T20:27:06.354Z,8.78
2019-04-04T20:29:44.581Z,8.53
2019-04-04T20:32:22.601Z,7.80
2019-04-04T20:35:00.992Z,7.90
2019-04-04T20:37:40.213Z,7.70
2019-04-04T20:40:19.137Z,8.45
2019-04-04T20:42:58.178Z,9.00
2019-04-04T20:45:36.119Z,8.05
2019-04-04T20:48:14.291Z,8.08
2019-04-04T20:50:52.195Z,8.98
2019-04-04T20:53:30.583Z,9.03
2019-04-04T20:56:09.305Z,8.18
2019-04-04T20:58:47.819Z,7.87
2019-04-04T21:01:26.238Z,7.65
2019-04-04T21:04:07.677Z,8.25
2019-04-04T21:06:46.102Z,7.57
2019-04-04T21:09:25.384Z,7.45
2019-04-04T21:12:04.593Z,7.30
2019-04-04T21:14:43.055Z,7.45
2019-04-04T21:17:20.881Z,8.15
2019-04-04T21:19:59.052Z,7.33
2019-04-04T21:22:37.922Z,8.00
2019-04-04T21:25:17.097Z,8.30
2019-04-04T21:27:55.097Z,8.28
2019-04-04T21:30:33.724Z,8.83
2019-04-04T21:33:11.739Z,8.30
2019-04-04T21:35:50.284Z,8.08
2019-04-04T21:38:28.839Z,8.45
2019-04-04T21:41:07.886Z,17.62
2019-04-04T21:43:48.139Z,10.32
2019-04-04T21:46:26.557Z,10.08
2019-04-04T21:49:04.460Z,10.75
2019-04-04T21:51:43.458Z,11.10
2019-04-04T21:54:21.482Z,11.33
2019-04-04T21:57:00.012Z,11.38
2019-04-04T21:59:38.043Z,12.80
2019-04-04T22:02:16.778Z,13.80
2019-04-04T22:04:55.641Z,12.37
2019-04-04T22:07:34.115Z,10.28
2019-04-04T22:10:13.176Z,11.80
2019-04-04T22:12:52.439Z,9.33
2019-04-04T22:15:31.884Z,9.10
2019-04-04T22:18:10.463Z,9.00
2019-04-04T22:20:48.423Z,9.80
2019-04-04T22:23:28.291Z,9.68
2019-04-04T22:26:06.981Z,7.95
2019-04-04T22:28:45.713Z,9.43
2019-04-04T22:31:24.203Z,9.08
2019-04-04T22:34:03.196Z,10.75
2019-04-04T22:36:41.559Z,10.65
2019-04-04T22:39:20.139Z,9.90
2019-04-04T22:41:58.513Z,9.58
2019-04-04T22:44:38.914Z,14.45
2019-04-04T22:47:18.424Z,14.40
2019-04-04T22:49:56.274Z,9.68
2019-04-04T22:52:34.064Z,9.95
2019-04-04T22:55:13.153Z,12.28
2019-04-04T22:57:51.400Z,11.22
2019-04-04T23:00:29.993Z,9.85
2019-04-04T23:03:08.693Z,9.15
2019-04-04T23:05:47.983Z,8.75
2019-04-04T23:08:26.048Z,8.38
2019-04-04T23:11:04.829Z,8.68
2019-04-04T23:13:44.964Z,8.15
2019-04-04T23:16:24.544Z,8.75
2019-04-04T23:19:03.492Z,8.50
2019-04-04T23:21:42.253Z,8.88
2019-04-04T23:24:20.393Z,8.85
2019-04-04T23:26:59.520Z,8.75
2019-04-04T23:29:37.720Z,13.32
2019-04-04T23:32:16.157Z,17.05
2019-04-04T23:34:55.514Z,20.27
2019-04-04T23:37:33.887Z,8.30
2019-04-04T23:40:12.086Z,7.60
2019-04-04T23:42:50.525Z,8.08
2019-04-04T23:45:29.216Z,7.85
2019-04-04T23:48:07.940Z,8.63
2019-04-04T23:50:47.125Z,8.70
2019-04-04T23:53:25.408Z,8.58
2019-04-04T23:56:03.946Z,8.75
2019-04-04T23:58:43.182Z,9.15
